Terminal Aerodrome Forecast
Issued by NWS Wilmington, NC

Current Version | Previous Version | Text Only | Print | Product List | Glossary Off
Versions: 1 2 3 4 5 6 7 8 9 10 11 12

000
FTUS42 KILM 140520
TAFILM
TAF
KILM 140520Z 1406/1506 05005KT P6SM FEW080 SCT250
     FM141700 09008KT P6SM SCT050 SCT250
     FM150200 07004KT P6SM SCT035 SCT250=

USA.gov is the U.S. government's official web portal to all federal, state and local government web resources and services.